sensor_id;sensor_type;location;lat;lon;timestamp;pressure;altitude;pressure_sealevel;temperature;humidity
25584;BME280;13463;51.526;9.928;2024-01-27T00:00:48;101428.31;;;5.29;98.61
25584;BME280;13463;51.526;9.928;2024-01-27T00:03:15;101437.16;;;5.22;98.68
25584;BME280;13463;51.526;9.928;2024-01-27T00:05:42;101428.38;;;5.22;99.25
25584;BME280;13463;51.526;9.928;2024-01-27T00:08:09;101437.19;;;5.16;99.06
25584;BME280;13463;51.526;9.928;2024-01-27T00:10:36;101438.94;;;5.20;99.84
25584;BME280;13463;51.526;9.928;2024-01-27T00:13:03;101436.41;;;5.07;100.00
25584;BME280;13463;51.526;9.928;2024-01-27T00:15:30;101447.53;;;5.34;99.79
25584;BME280;13463;51.526;9.928;2024-01-27T00:17:57;101447.75;;;5.13;100.00
25584;BME280;13463;51.526;9.928;2024-01-27T00:20:24;101446.16;;;4.94;100.00
25584;BME280;13463;51.526;9.928;2024-01-27T00:22:51;101441.78;;;4.96;100.00
25584;BME280;13463;51.526;9.928;2024-01-27T00:25:19;101451.56;;;4.82;100.00
25584;BME280;13463;51.526;9.928;2024-01-27T00:27:46;101440.00;;;5.00;100.00
25584;BME280;13463;51.526;9.928;2024-01-27T00:30:12;101438.34;;;4.88;100.00
25584;BME280;13463;51.526;9.928;2024-01-27T00:32:39;101443.63;;;4.85;100.00
25584;BME280;13463;51.526;9.928;2024-01-27T00:35:07;101442.69;;;4.92;100.00
25584;BME280;13463;51.526;9.928;2024-01-27T00:37:35;101446.25;;;4.87;100.00
25584;BME280;13463;51.526;9.928;2024-01-27T00:40:02;101441.09;;;4.73;100.00
25584;BME280;13463;51.526;9.928;2024-01-27T00:42:29;101445.31;;;4.92;100.00
25584;BME280;13463;51.526;9.928;2024-01-27T00:44:57;101443.75;;;4.71;100.00
25584;BME280;13463;51.526;9.928;2024-01-27T00:47:23;101451.75;;;4.58;100.00
25584;BME280;13463;51.526;9.928;2024-01-27T00:49:50;101455.22;;;4.60;100.00
25584;BME280;13463;51.526;9.928;2024-01-27T00:52:17;101458.63;;;4.74;100.00
25584;BME280;13463;51.526;9.928;2024-01-27T00:54:43;101456.88;;;4.73;100.00
25584;BME280;13463;51.526;9.928;2024-01-27T00:57:10;101458.63;;;4.71;100.00
25584;BME280;13463;51.526;9.928;2024-01-27T00:59:36;101457.00;;;4.58;100.00
25584;BME280;13463;51.526;9.928;2024-01-27T01:02:03;101465.72;;;4.58;100.00
25584;BME280;13463;51.526;9.928;2024-01-27T01:04:30;101467.53;;;4.49;100.00
25584;BME280;13463;51.526;9.928;2024-01-27T01:06:56;101469.31;;;4.44;100.00
25584;BME280;13463;51.526;9.928;2024-01-27T01:09:23;101475.44;;;4.47;100.00
25584;BME280;13463;51.526;9.928;2024-01-27T01:11:50;101478.09;;;4.46;100.00
25584;BME280;13463;51.526;9.928;2024-01-27T01:14:17;101481.44;;;4.66;100.00
25584;BME280;13463;51.526;9.928;2024-01-27T01:16:43;101480.66;;;4.55;100.00
25584;BME280;13463;51.526;9.928;2024-01-27T01:19:10;101483.19;;;4.67;100.00
25584;BME280;13463;51.526;9.928;2024-01-27T01:21:36;101491.09;;;4.64;100.00
25584;BME280;13463;51.526;9.928;2024-01-27T01:24:03;101495.56;;;4.51;100.00
25584;BME280;13463;51.526;9.928;2024-01-27T01:26:30;101502.53;;;4.60;100.00
25584;BME280;13463;51.526;9.928;2024-01-27T01:28:56;101497.09;;;4.84;100.00
25584;BME280;13463;51.526;9.928;2024-01-27T01:31:23;101503.34;;;4.63;100.00
25584;BME280;13463;51.526;9.928;2024-01-27T01:33:49;101502.44;;;4.69;100.00
25584;BME280;13463;51.526;9.928;2024-01-27T01:36:16;101504.00;;;4.94;100.00
25584;BME280;13463;51.526;9.928;2024-01-27T01:38:43;101509.38;;;4.82;100.00
25584;BME280;13463;51.526;9.928;2024-01-27T01:41:09;101511.19;;;4.71;100.00
25584;BME280;13463;51.526;9.928;2024-01-27T01:43:36;101516.38;;;4.82;100.00
25584;BME280;13463;51.526;9.928;2024-01-27T01:46:03;101517.22;;;4.87;100.00
25584;BME280;13463;51.526;9.928;2024-01-27T01:48:30;101522.41;;;4.96;100.00
25584;BME280;13463;51.526;9.928;2024-01-27T01:50:58;101524.19;;;4.94;100.00
25584;BME280;13463;51.526;9.928;2024-01-27T01:53:26;101533.84;;;4.90;100.00
25584;BME280;13463;51.526;9.928;2024-01-27T01:55:52;101529.44;;;4.92;100.00
25584;BME280;13463;51.526;9.928;2024-01-27T01:58:19;101524.97;;;5.02;100.00
25584;BME280;13463;51.526;9.928;2024-01-27T02:00:46;101526.50;;;5.31;100.00
25584;BME280;13463;51.526;9.928;2024-01-27T02:03:13;101531.06;;;5.07;100.00
25584;BME280;13463;51.526;9.928;2024-01-27T02:05:40;101531.19;;;4.96;100.00
25584;BME280;13463;51.526;9.928;2024-01-27T02:08:06;101540.88;;;4.88;100.00
25584;BME280;13463;51.526;9.928;2024-01-27T02:10:33;101539.13;;;4.86;100.00
25584;BME280;13463;51.526;9.928;2024-01-27T02:13:04;101547.78;;;5.01;100.00
25584;BME280;13463;51.526;9.928;2024-01-27T02:15:32;101548.56;;;5.12;100.00
25584;BME280;13463;51.526;9.928;2024-01-27T02:17:58;101540.75;;;5.03;100.00
25584;BME280;13463;51.526;9.928;2024-01-27T02:20:25;101535.53;;;5.00;100.00
25584;BME280;13463;51.526;9.928;2024-01-27T02:22:52;101539.00;;;5.02;100.00
25584;BME280;13463;51.526;9.928;2024-01-27T02:25:18;101540.84;;;4.90;100.00
25584;BME280;13463;51.526;9.928;2024-01-27T02:27:45;101531.25;;;4.86;100.00
25584;BME280;13463;51.526;9.928;2024-01-27T02:30:11;101529.38;;;5.03;100.00
25584;BME280;13463;51.526;9.928;2024-01-27T02:32:38;101528.50;;;5.02;100.00
25584;BME280;13463;51.526;9.928;2024-01-27T02:35:05;101530.97;;;5.19;100.00
25584;BME280;13463;51.526;9.928;2024-01-27T02:37:31;101532.69;;;5.24;100.00
25584;BME280;13463;51.526;9.928;2024-01-27T02:39:58;101527.41;;;5.26;100.00
25584;BME280;13463;51.526;9.928;2024-01-27T02:42:24;101527.50;;;5.17;100.00
25584;BME280;13463;51.526;9.928;2024-01-27T02:44:51;101525.50;;;5.43;100.00
25584;BME280;13463;51.526;9.928;2024-01-27T02:47:18;101537.00;;;5.31;100.00
25584;BME280;13463;51.526;9.928;2024-01-27T02:49:44;101534.44;;;5.24;100.00
25584;BME280;13463;51.526;9.928;2024-01-27T02:52:11;101535.41;;;5.15;100.00
25584;BME280;13463;51.526;9.928;2024-01-27T02:54:38;101542.38;;;5.16;100.00
25584;BME280;13463;51.526;9.928;2024-01-27T02:57:04;101538.78;;;5.29;100.00
25584;BME280;13463;51.526;9.928;2024-01-27T02:59:31;101541.59;;;5.08;100.00
25584;BME280;13463;51.526;9.928;2024-01-27T03:01:57;101544.19;;;5.16;100.00
25584;BME280;13463;51.526;9.928;2024-01-27T03:04:24;101538.09;;;5.06;100.00
25584;BME280;13463;51.526;9.928;2024-01-27T03:06:51;101533.72;;;5.08;100.00
25584;BME280;13463;51.526;9.928;2024-01-27T03:09:17;101532.81;;;5.11;100.00
25584;BME280;13463;51.526;9.928;2024-01-27T03:11:44;101540.78;;;5.00;100.00
25584;BME280;13463;51.526;9.928;2024-01-27T03:14:11;101544.25;;;5.02;100.00
25584;BME280;13463;51.526;9.928;2024-01-27T03:16:37;101542.47;;;5.10;100.00
25584;BME280;13463;51.526;9.928;2024-01-27T03:19:04;101546.81;;;5.11;100.00
25584;BME280;13463;51.526;9.928;2024-01-27T03:21:31;101545.88;;;5.20;100.00
25584;BME280;13463;51.526;9.928;2024-01-27T03:23:58;101545.94;;;5.12;100.00
25584;BME280;13463;51.526;9.928;2024-01-27T03:26:24;101542.34;;;5.22;100.00
25584;BME280;13463;51.526;9.928;2024-01-27T03:28:51;101531.94;;;5.07;100.00
25584;BME280;13463;51.526;9.928;2024-01-27T03:31:17;101552.09;;;5.10;100.00
25584;BME280;13463;51.526;9.928;2024-01-27T03:33:44;101539.72;;;5.21;100.00
25584;BME280;13463;51.526;9.928;2024-01-27T03:36:12;101552.13;;;5.05;100.00
25584;BME280;13463;51.526;9.928;2024-01-27T03:38:41;101552.19;;;4.95;100.00
25584;BME280;13463;51.526;9.928;2024-01-27T03:41:08;101553.00;;;5.07;100.00
25584;BME280;13463;51.526;9.928;2024-01-27T03:43:35;101553.00;;;5.04;100.00
25584;BME280;13463;51.526;9.928;2024-01-27T03:46:02;101550.34;;;5.09;100.00
25584;BME280;13463;51.526;9.928;2024-01-27T03:48:29;101553.06;;;4.98;100.00
25584;BME280;13463;51.526;9.928;2024-01-27T03:50:56;101553.78;;;5.20;100.00
25584;BME280;13463;51.526;9.928;2024-01-27T03:53:23;101552.97;;;5.13;100.00
25584;BME280;13463;51.526;9.928;2024-01-27T03:55:49;101558.28;;;5.04;100.00
25584;BME280;13463;51.526;9.928;2024-01-27T03:58:16;101559.25;;;4.91;100.00
25584;BME280;13463;51.526;9.928;2024-01-27T04:00:42;101557.53;;;4.86;100.00
25584;BME280;13463;51.526;9.928;2024-01-27T04:03:11;101563.53;;;5.04;100.00
25584;BME280;13463;51.526;9.928;2024-01-27T04:05:38;101568.94;;;4.83;100.00
25584;BME280;13463;51.526;9.928;2024-01-27T04:08:05;101574.06;;;5.03;100.00
25584;BME280;13463;51.526;9.928;2024-01-27T04:10:32;101577.66;;;4.88;100.00
25584;BME280;13463;51.526;9.928;2024-01-27T04:12:59;101584.69;;;4.86;100.00
25584;BME280;13463;51.526;9.928;2024-01-27T04:15:26;101581.22;;;4.78;100.00
25584;BME280;13463;51.526;9.928;2024-01-27T04:17:53;101588.31;;;4.70;100.00
25584;BME280;13463;51.526;9.928;2024-01-27T04:20:20;101595.16;;;4.95;100.00
25584;BME280;13463;51.526;9.928;2024-01-27T04:22:47;101609.22;;;4.91;100.00
25584;BME280;13463;51.526;9.928;2024-01-27T04:25:13;101604.84;;;4.89;100.00
25584;BME280;13463;51.526;9.928;2024-01-27T04:27:41;101622.41;;;4.79;100.00
25584;BME280;13463;51.526;9.928;2024-01-27T04:30:11;101619.81;;;4.76;100.00
25584;BME280;13463;51.526;9.928;2024-01-27T04:32:38;101612.69;;;4.96;100.00
25584;BME280;13463;51.526;9.928;2024-01-27T04:35:09;101630.19;;;4.94;100.00
25584;BME280;13463;51.526;9.928;2024-01-27T04:37:36;101618.78;;;4.97;100.00
25584;BME280;13463;51.526;9.928;2024-01-27T04:40:04;101612.66;;;5.01;100.00
25584;BME280;13463;51.526;9.928;2024-01-27T04:42:41;101617.88;;;5.02;100.00
25584;BME280;13463;51.526;9.928;2024-01-27T04:45:08;101629.31;;;4.95;100.00
25584;BME280;13463;51.526;9.928;2024-01-27T04:47:34;101626.69;;;5.01;100.00
25584;BME280;13463;51.526;9.928;2024-01-27T04:50:01;101628.41;;;5.02;100.00
25584;BME280;13463;51.526;9.928;2024-01-27T04:52:28;101622.94;;;5.34;100.00
25584;BME280;13463;51.526;9.928;2024-01-27T04:54:54;101633.56;;;5.17;100.00
25584;BME280;13463;51.526;9.928;2024-01-27T04:57:21;101630.09;;;5.15;100.00
25584;BME280;13463;51.526;9.928;2024-01-27T04:59:47;101630.09;;;5.09;100.00
25584;BME280;13463;51.526;9.928;2024-01-27T05:02:14;101635.44;;;5.00;100.00
25584;BME280;13463;51.526;9.928;2024-01-27T05:04:40;101643.28;;;5.05;100.00
25584;BME280;13463;51.526;9.928;2024-01-27T05:07:07;101647.63;;;5.12;100.00
25584;BME280;13463;51.526;9.928;2024-01-27T05:09:34;101659.03;;;5.06;100.00
25584;BME280;13463;51.526;9.928;2024-01-27T05:12:01;101661.66;;;5.12;100.00
25584;BME280;13463;51.526;9.928;2024-01-27T05:14:29;101664.31;;;5.09;100.00
25584;BME280;13463;51.526;9.928;2024-01-27T05:16:55;101668.63;;;5.16;100.00
25584;BME280;13463;51.526;9.928;2024-01-27T05:19:22;101669.53;;;5.17;100.00
25584;BME280;13463;51.526;9.928;2024-01-27T05:21:49;101669.56;;;5.11;100.00
25584;BME280;13463;51.526;9.928;2024-01-27T05:24:15;101666.06;;;5.07;100.00
25584;BME280;13463;51.526;9.928;2024-01-27T05:26:42;101664.25;;;5.20;100.00
25584;BME280;13463;51.526;9.928;2024-01-27T05:29:09;101676.53;;;5.16;100.00
25584;BME280;13463;51.526;9.928;2024-01-27T05:31:35;101674.78;;;5.17;100.00
25584;BME280;13463;51.526;9.928;2024-01-27T05:34:02;101681.00;;;5.05;100.00
25584;BME280;13463;51.526;9.928;2024-01-27T05:36:29;101683.69;;;4.96;100.00
25584;BME280;13463;51.526;9.928;2024-01-27T05:38:56;101690.69;;;4.99;100.00
25584;BME280;13463;51.526;9.928;2024-01-27T05:41:26;101696.75;;;5.10;100.00
25584;BME280;13463;51.526;9.928;2024-01-27T05:43:53;101701.19;;;4.97;100.00
25584;BME280;13463;51.526;9.928;2024-01-27T05:46:19;101700.38;;;4.89;100.00
25584;BME280;13463;51.526;9.928;2024-01-27T05:48:46;101696.00;;;4.81;100.00
25584;BME280;13463;51.526;9.928;2024-01-27T05:51:13;101707.41;;;4.84;100.00
25584;BME280;13463;51.526;9.928;2024-01-27T05:53:39;101705.69;;;4.71;100.00
25584;BME280;13463;51.526;9.928;2024-01-27T05:56:06;101698.53;;;5.00;100.00
25584;BME280;13463;51.526;9.928;2024-01-27T05:58:33;101696.81;;;4.96;100.00
25584;BME280;13463;51.526;9.928;2024-01-27T06:00:59;101702.16;;;4.75;100.00
25584;BME280;13463;51.526;9.928;2024-01-27T06:03:26;101709.25;;;4.58;100.00
25584;BME280;13463;51.526;9.928;2024-01-27T06:05:52;101717.13;;;4.53;100.00
25584;BME280;13463;51.526;9.928;2024-01-27T06:08:19;101706.63;;;4.50;100.00
25584;BME280;13463;51.526;9.928;2024-01-27T06:10:47;101712.75;;;4.57;100.00
25584;BME280;13463;51.526;9.928;2024-01-27T06:13:13;101713.69;;;4.33;100.00
25584;BME280;13463;51.526;9.928;2024-01-27T06:15:40;101706.63;;;4.44;100.00
25584;BME280;13463;51.526;9.928;2024-01-27T06:18:07;101701.41;;;4.29;100.00
25584;BME280;13463;51.526;9.928;2024-01-27T06:20:33;101707.56;;;4.18;100.00
25584;BME280;13463;51.526;9.928;2024-01-27T06:23:00;101706.72;;;4.10;100.00
25584;BME280;13463;51.526;9.928;2024-01-27T06:25:27;101712.84;;;4.01;100.00
25584;BME280;13463;51.526;9.928;2024-01-27T06:27:54;101711.09;;;3.86;100.00
25584;BME280;13463;51.526;9.928;2024-01-27T06:30:20;101713.72;;;3.89;100.00
25584;BME280;13463;51.526;9.928;2024-01-27T06:32:47;101716.34;;;3.77;100.00
25584;BME280;13463;51.526;9.928;2024-01-27T06:35:14;101716.34;;;3.77;100.00
25584;BME280;13463;51.526;9.928;2024-01-27T06:37:41;101708.47;;;3.89;100.00
25584;BME280;13463;51.526;9.928;2024-01-27T06:40:08;101723.34;;;3.63;100.00
25584;BME280;13463;51.526;9.928;2024-01-27T06:42:36;101726.84;;;3.56;100.00
25584;BME280;13463;51.526;9.928;2024-01-27T06:45:03;101732.09;;;3.47;100.00
25584;BME280;13463;51.526;9.928;2024-01-27T06:47:29;101733.78;;;3.33;100.00
25584;BME280;13463;51.526;9.928;2024-01-27T06:49:56;101740.78;;;3.34;100.00
25584;BME280;13463;51.526;9.928;2024-01-27T06:52:22;101746.88;;;3.24;100.00
25584;BME280;13463;51.526;9.928;2024-01-27T06:54:49;101745.94;;;3.10;100.00
25584;BME280;13463;51.526;9.928;2024-01-27T06:57:22;101750.31;;;3.05;100.00
25584;BME280;13463;51.526;9.928;2024-01-27T06:59:51;101751.16;;;3.01;100.00
25584;BME280;13463;51.526;9.928;2024-01-27T07:02:25;101749.41;;;2.94;100.00
25584;BME280;13463;51.526;9.928;2024-01-27T07:04:55;101754.59;;;2.88;100.00
25584;BME280;13463;51.526;9.928;2024-01-27T07:07:26;101752.84;;;2.90;100.00
25584;BME280;13463;51.526;9.928;2024-01-27T07:09:55;101756.41;;;3.01;100.00
25584;BME280;13463;51.526;9.928;2024-01-27T07:12:22;101761.59;;;2.90;100.00
25584;BME280;13463;51.526;9.928;2024-01-27T07:14:50;101763.41;;;2.99;100.00
25584;BME280;13463;51.526;9.928;2024-01-27T07:17:23;101766.03;;;2.99;100.00
25584;BME280;13463;51.526;9.928;2024-01-27T07:19:50;101769.47;;;2.93;100.00
25584;BME280;13463;51.526;9.928;2024-01-27T07:22:17;101779.06;;;2.87;100.00
25584;BME280;13463;51.526;9.928;2024-01-27T07:24:43;101773.78;;;2.79;100.00
25584;BME280;13463;51.526;9.928;2024-01-27T07:27:12;101778.19;;;2.91;100.00
25584;BME280;13463;51.526;9.928;2024-01-27T07:29:39;101776.50;;;3.02;100.00
25584;BME280;13463;51.526;9.928;2024-01-27T07:32:06;101782.63;;;3.01;100.00
25584;BME280;13463;51.526;9.928;2024-01-27T07:34:34;101780.03;;;3.08;100.00
25584;BME280;13463;51.526;9.928;2024-01-27T07:37:01;101793.13;;;3.07;100.00
25584;BME280;13463;51.526;9.928;2024-01-27T07:39:27;101784.44;;;3.20;100.00
25584;BME280;13463;51.526;9.928;2024-01-27T07:41:54;101784.47;;;3.29;100.00
25584;BME280;13463;51.526;9.928;2024-01-27T07:44:20;101787.16;;;3.44;100.00
25584;BME280;13463;51.526;9.928;2024-01-27T07:46:47;101786.25;;;3.36;100.00
25584;BME280;13463;51.526;9.928;2024-01-27T07:49:13;101789.78;;;3.50;100.00
25584;BME280;13463;51.526;9.928;2024-01-27T07:51:41;101789.78;;;3.50;100.00
25584;BME280;13463;51.526;9.928;2024-01-27T07:54:08;101801.16;;;3.49;100.00
25584;BME280;13463;51.526;9.928;2024-01-27T07:56:34;101798.56;;;3.61;100.00
25584;BME280;13463;51.526;9.928;2024-01-27T07:59:01;101801.19;;;3.61;100.00
25584;BME280;13463;51.526;9.928;2024-01-27T08:01:28;101811.66;;;3.63;100.00
25584;BME280;13463;51.526;9.928;2024-01-27T08:03:54;101809.06;;;3.79;100.00
25584;BME280;13463;51.526;9.928;2024-01-27T08:06:28;101813.44;;;3.83;100.00
25584;BME280;13463;51.526;9.928;2024-01-27T08:08:56;101827.47;;;3.81;100.00
25584;BME280;13463;51.526;9.928;2024-01-27T08:11:23;101824.84;;;3.94;100.00
25584;BME280;13463;51.526;9.928;2024-01-27T08:13:50;101821.34;;;3.98;100.00
25584;BME280;13463;51.526;9.928;2024-01-27T08:16:18;101824.84;;;4.03;100.00
25584;BME280;13463;51.526;9.928;2024-01-27T08:18:44;101823.09;;;4.18;100.00
25584;BME280;13463;51.526;9.928;2024-01-27T08:21:11;101810.84;;;4.20;100.00
25584;BME280;13463;51.526;9.928;2024-01-27T08:23:41;101811.75;;;4.34;100.00
25584;BME280;13463;51.526;9.928;2024-01-27T08:26:07;101815.25;;;4.43;100.00
25584;BME280;13463;51.526;9.928;2024-01-27T08:28:34;101814.34;;;4.55;100.00
25584;BME280;13463;51.526;9.928;2024-01-27T08:31:03;101819.59;;;4.55;100.00
25584;BME280;13463;51.526;9.928;2024-01-27T08:33:31;101816.09;;;4.56;100.00
25584;BME280;13463;51.526;9.928;2024-01-27T08:35:58;101822.19;;;4.65;100.00
25584;BME280;13463;51.526;9.928;2024-01-27T08:38:24;101813.44;;;4.76;100.00
25584;BME280;13463;51.526;9.928;2024-01-27T08:40:51;101809.03;;;4.88;100.00
25584;BME280;13463;51.526;9.928;2024-01-27T08:43:17;101811.59;;;5.05;100.00
25584;BME280;13463;51.526;9.928;2024-01-27T08:45:44;101819.13;;;5.79;100.00
25584;BME280;13463;51.526;9.928;2024-01-27T08:48:10;101812.31;;;5.45;99.74
25584;BME280;13463;51.526;9.928;2024-01-27T08:50:38;101811.13;;;5.95;97.24
25584;BME280;13463;51.526;9.928;2024-01-27T08:53:05;101814.84;;;5.63;96.85
25584;BME280;13463;51.526;9.928;2024-01-27T08:55:32;101822.81;;;5.48;99.26
25584;BME280;13463;51.526;9.928;2024-01-27T08:57:58;101826.09;;;5.92;97.59
25584;BME280;13463;51.526;9.928;2024-01-27T09:00:25;101818.84;;;6.24;94.39
25584;BME280;13463;51.526;9.928;2024-01-27T09:02:52;101817.41;;;5.75;96.04
25584;BME280;13463;51.526;9.928;2024-01-27T09:05:18;101826.25;;;5.66;95.90
25584;BME280;13463;51.526;9.928;2024-01-27T09:07:45;101827.91;;;5.85;95.15
25584;BME280;13463;51.526;9.928;2024-01-27T09:10:12;101833.16;;;5.76;95.27
25584;BME280;13463;51.526;9.928;2024-01-27T09:12:42;101831.41;;;5.77;94.80
25584;BME280;13463;51.526;9.928;2024-01-27T09:15:09;101820.03;;;5.78;96.10
25584;BME280;13463;51.526;9.928;2024-01-27T09:17:36;101819.31;;;5.43;97.83
25584;BME280;13463;51.526;9.928;2024-01-27T09:20:03;101826.41;;;5.28;98.25
25584;BME280;13463;51.526;9.928;2024-01-27T09:22:30;101829.06;;;5.22;98.15
25584;BME280;13463;51.526;9.928;2024-01-27T09:24:57;101835.16;;;5.32;97.19
25584;BME280;13463;51.526;9.928;2024-01-27T09:27:24;101833.38;;;5.45;97.10
25584;BME280;13463;51.526;9.928;2024-01-27T09:29:50;101826.28;;;5.56;96.40
25584;BME280;13463;51.526;9.928;2024-01-27T09:32:17;101833.44;;;5.23;97.03
25584;BME280;13463;51.526;9.928;2024-01-27T09:34:44;101833.38;;;5.35;97.19
25584;BME280;13463;51.526;9.928;2024-01-27T09:37:11;101828.91;;;5.53;96.09
25584;BME280;13463;51.526;9.928;2024-01-27T09:39:37;101830.66;;;5.55;96.05
25584;BME280;13463;51.526;9.928;2024-01-27T09:42:06;101831.50;;;5.62;94.62
25584;BME280;13463;51.526;9.928;2024-01-27T09:44:34;101829.75;;;5.64;94.06
25584;BME280;13463;51.526;9.928;2024-01-27T09:47:02;101823.53;;;5.74;94.14
25584;BME280;13463;51.526;9.928;2024-01-27T09:49:29;101835.03;;;5.61;94.46
25584;BME280;13463;51.526;9.928;2024-01-27T09:51:58;101835.88;;;5.67;94.35
25584;BME280;13463;51.526;9.928;2024-01-27T09:54:25;101839.34;;;5.75;93.31
25584;BME280;13463;51.526;9.928;2024-01-27T09:56:52;101844.59;;;5.77;93.29
25584;BME280;13463;51.526;9.928;2024-01-27T09:59:20;101834.16;;;5.63;94.28
25584;BME280;13463;51.526;9.928;2024-01-27T10:01:48;101836.69;;;5.77;94.22
25584;BME280;13463;51.526;9.928;2024-01-27T10:04:15;101834.84;;;5.95;93.08
25584;BME280;13463;51.526;9.928;2024-01-27T10:06:42;101841.03;;;5.91;93.73
25584;BME280;13463;51.526;9.928;2024-01-27T10:09:09;101846.94;;;6.24;92.84
25584;BME280;13463;51.526;9.928;2024-01-27T10:11:38;101848.84;;;6.05;92.31
25584;BME280;13463;51.526;9.928;2024-01-27T10:14:06;101836.41;;;6.22;92.20
25584;BME280;13463;51.526;9.928;2024-01-27T10:16:43;101834.81;;;6.04;92.59
25584;BME280;13463;51.526;9.928;2024-01-27T10:19:17;101839.13;;;6.15;93.69
25584;BME280;13463;51.526;9.928;2024-01-27T10:21:45;101833.66;;;6.39;90.48
25584;BME280;13463;51.526;9.928;2024-01-27T10:24:12;101827.56;;;6.34;91.45
25584;BME280;13463;51.526;9.928;2024-01-27T10:26:39;101830.91;;;6.49;92.17
25584;BME280;13463;51.526;9.928;2024-01-27T10:29:06;101840.44;;;6.67;90.92
25584;BME280;13463;51.526;9.928;2024-01-27T10:31:34;101828.84;;;6.82;88.94
25584;BME280;13463;51.526;9.928;2024-01-27T10:34:02;101838.84;;;6.48;90.38
25584;BME280;13463;51.526;9.928;2024-01-27T10:36:42;101843.09;;;6.62;89.86
25584;BME280;13463;51.526;9.928;2024-01-27T10:39:20;101830.56;;;6.86;89.02
25584;BME280;13463;51.526;9.928;2024-01-27T10:41:48;101826.81;;;7.05;87.53
25584;BME280;13463;51.526;9.928;2024-01-27T10:44:19;101832.25;;;6.93;87.61
25584;BME280;13463;51.526;9.928;2024-01-27T10:46:47;101831.97;;;7.17;87.38
25584;BME280;13463;51.526;9.928;2024-01-27T10:49:16;101834.53;;;7.21;86.58
25584;BME280;13463;51.526;9.928;2024-01-27T10:51:49;101835.44;;;7.19;87.53
25584;BME280;13463;51.526;9.928;2024-01-27T10:54:23;101834.88;;;6.94;85.88
25584;BME280;13463;51.526;9.928;2024-01-27T10:56:53;101839.88;;;7.17;84.76
25584;BME280;13463;51.526;9.928;2024-01-27T10:59:21;101837.25;;;7.17;84.48
25584;BME280;13463;51.526;9.928;2024-01-27T11:01:49;101824.22;;;7.03;84.18
25584;BME280;13463;51.526;9.928;2024-01-27T11:04:24;101826.13;;;6.88;84.88
25584;BME280;13463;51.526;9.928;2024-01-27T11:06:51;101828.78;;;6.88;85.72
25584;BME280;13463;51.526;9.928;2024-01-27T11:09:19;101822.66;;;6.83;86.11
25584;BME280;13463;51.526;9.928;2024-01-27T11:11:48;101826.16;;;6.86;85.35
25584;BME280;13463;51.526;9.928;2024-01-27T11:14:15;101825.28;;;6.86;84.88
25584;BME280;13463;51.526;9.928;2024-01-27T11:16:42;101827.09;;;6.82;86.28
25584;BME280;13463;51.526;9.928;2024-01-27T11:19:14;101821.81;;;6.81;86.57
25584;BME280;13463;51.526;9.928;2024-01-27T11:21:40;101818.13;;;6.97;87.58
25584;BME280;13463;51.526;9.928;2024-01-27T11:24:17;101821.78;;;6.84;86.57
25584;BME280;13463;51.526;9.928;2024-01-27T11:26:44;101816.53;;;6.84;86.79
25584;BME280;13463;51.526;9.928;2024-01-27T11:29:11;101814.84;;;6.77;87.24
25584;BME280;13463;51.526;9.928;2024-01-27T11:31:48;101816.22;;;7.11;86.59
25584;BME280;13463;51.526;9.928;2024-01-27T11:34:17;101821.50;;;7.11;85.41
25584;BME280;13463;51.526;9.928;2024-01-27T11:36:46;101821.19;;;7.33;84.48
25584;BME280;13463;51.526;9.928;2024-01-27T11:39:30;101827.34;;;7.37;83.35
25584;BME280;13463;51.526;9.928;2024-01-27T11:42:07;101819.38;;;7.40;82.31
25584;BME280;13463;51.526;9.928;2024-01-27T11:44:37;101812.47;;;7.30;82.72
25584;BME280;13463;51.526;9.928;2024-01-27T11:47:05;101807.22;;;7.27;82.22
25584;BME280;13463;51.526;9.928;2024-01-27T11:49:33;101801.03;;;7.29;83.29
25584;BME280;13463;51.526;9.928;2024-01-27T11:52:00;101802.69;;;7.36;84.73
25584;BME280;13463;51.526;9.928;2024-01-27T11:54:26;101798.34;;;7.31;84.39
25584;BME280;13463;51.526;9.928;2024-01-27T11:56:53;101801.09;;;7.23;84.02
25584;BME280;13463;51.526;9.928;2024-01-27T11:59:21;101801.00;;;7.31;83.62
25584;BME280;13463;51.526;9.928;2024-01-27T12:01:48;101789.38;;;7.46;81.84
25584;BME280;13463;51.526;9.928;2024-01-27T12:04:15;101795.50;;;7.49;81.06
25584;BME280;13463;51.526;9.928;2024-01-27T12:06:43;101789.38;;;7.47;80.22
25584;BME280;13463;51.526;9.928;2024-01-27T12:09:10;101797.34;;;7.41;82.68
25584;BME280;13463;51.526;9.928;2024-01-27T12:11:39;101793.72;;;7.50;82.70
25584;BME280;13463;51.526;9.928;2024-01-27T12:14:08;101790.00;;;7.63;79.86
25584;BME280;13463;51.526;9.928;2024-01-27T12:16:35;101792.75;;;7.55;80.02
25584;BME280;13463;51.526;9.928;2024-01-27T12:19:01;101803.25;;;7.60;81.86
25584;BME280;13463;51.526;9.928;2024-01-27T12:21:28;101809.88;;;7.89;76.96
25584;BME280;13463;51.526;9.928;2024-01-27T12:23:56;101818.44;;;8.03;75.72
25584;BME280;13463;51.526;9.928;2024-01-27T12:26:28;101815.91;;;7.96;75.17
25584;BME280;13463;51.526;9.928;2024-01-27T12:28:56;101813.34;;;7.91;78.39
25584;BME280;13463;51.526;9.928;2024-01-27T12:31:26;101807.44;;;7.74;77.70
25584;BME280;13463;51.526;9.928;2024-01-27T12:33:55;101811.81;;;7.78;77.61
25584;BME280;13463;51.526;9.928;2024-01-27T12:36:23;101815.25;;;7.83;76.75
25584;BME280;13463;51.526;9.928;2024-01-27T12:39:01;101812.78;;;7.70;78.92
25584;BME280;13463;51.526;9.928;2024-01-27T12:41:30;101810.94;;;7.76;79.00
25584;BME280;13463;51.526;9.928;2024-01-27T12:43:59;101811.63;;;7.90;77.68
25584;BME280;13463;51.526;9.928;2024-01-27T12:46:26;101810.59;;;7.99;76.93
25584;BME280;13463;51.526;9.928;2024-01-27T12:48:53;101802.56;;;8.06;78.27
25584;BME280;13463;51.526;9.928;2024-01-27T12:51:20;101809.72;;;7.98;75.54
25584;BME280;13463;51.526;9.928;2024-01-27T12:53:47;101808.06;;;7.91;75.53